createdAt,value
2018-10-03T00:02:11.733Z,10.50
2018-10-03T00:04:40.166Z,10.50
2018-10-03T00:07:08.655Z,10.50
2018-10-03T00:09:37.082Z,10.50
2018-10-03T00:12:05.577Z,10.60
2018-10-03T00:14:34.029Z,10.60
2018-10-03T00:17:02.489Z,10.60
2018-10-03T00:19:30.912Z,10.60
2018-10-03T00:21:59.374Z,10.50
2018-10-03T00:24:27.809Z,10.60
2018-10-03T00:26:56.275Z,10.50
2018-10-03T00:29:24.706Z,10.60
2018-10-03T00:31:53.167Z,10.60
2018-10-03T00:34:21.589Z,10.60
2018-10-03T00:36:50.055Z,10.60
2018-10-03T00:39:18.509Z,10.70
2018-10-03T00:41:46.982Z,10.70
2018-10-03T00:44:15.425Z,10.70
2018-10-03T00:46:43.856Z,10.60
2018-10-03T00:49:12.309Z,10.60
2018-10-03T00:51:40.759Z,10.60
2018-10-03T00:54:09.234Z,10.60
2018-10-03T00:56:37.681Z,10.60
2018-10-03T00:59:06.185Z,10.60
2018-10-03T01:01:34.622Z,10.60
2018-10-03T01:04:03.092Z,10.60
2018-10-03T01:06:31.539Z,10.60
2018-10-03T01:08:59.998Z,10.60
2018-10-03T01:11:28.458Z,10.60
2018-10-03T01:13:56.942Z,10.60
2018-10-03T01:16:25.381Z,10.60
2018-10-03T01:18:53.862Z,10.60
2018-10-03T01:21:22.321Z,10.60
2018-10-03T01:23:50.782Z,10.60
2018-10-03T01:26:19.238Z,10.70
2018-10-03T01:28:47.708Z,10.60
2018-10-03T01:31:16.165Z,10.60
2018-10-03T01:33:44.667Z,10.70
2018-10-03T01:36:13.145Z,10.70
2018-10-03T01:38:41.675Z,10.70
2018-10-03T01:41:10.164Z,10.70
2018-10-03T01:43:38.645Z,10.70
2018-10-03T01:46:07.213Z,10.70
2018-10-03T01:48:35.686Z,10.70
2018-10-03T01:51:04.154Z,10.70
2018-10-03T01:53:32.649Z,10.70
2018-10-03T01:56:01.112Z,10.70
2018-10-03T01:58:29.582Z,10.80
2018-10-03T02:00:58.034Z,10.80
2018-10-03T02:03:26.501Z,10.90
2018-10-03T02:05:54.989Z,10.90
2018-10-03T02:08:23.461Z,10.90
2018-10-03T02:10:51.909Z,10.90
2018-10-03T02:13:20.402Z,11.00
2018-10-03T02:15:48.841Z,11.00
2018-10-03T02:18:17.296Z,11.00
2018-10-03T02:20:45.754Z,11.00
2018-10-03T02:23:14.263Z,11.10
2018-10-03T02:25:42.709Z,11.10
2018-10-03T02:28:11.190Z,11.10
2018-10-03T02:30:39.657Z,11.10
2018-10-03T02:33:08.097Z,11.10
2018-10-03T02:35:36.581Z,11.20
2018-10-03T02:38:05.062Z,11.10
2018-10-03T02:40:33.535Z,11.20
2018-10-03T02:43:01.993Z,11.20
2018-10-03T02:45:30.725Z,11.20
2018-10-03T02:47:59.172Z,11.20
2018-10-03T02:50:27.646Z,11.20
2018-10-03T02:52:56.113Z,11.30
2018-10-03T02:55:24.590Z,11.40
2018-10-03T02:57:53.025Z,11.30
2018-10-03T03:00:21.510Z,11.30
2018-10-03T03:02:49.944Z,11.30
2018-10-03T03:05:18.390Z,11.30
2018-10-03T03:07:46.911Z,11.30
2018-10-03T03:10:15.378Z,11.20
2018-10-03T03:12:43.826Z,11.20
2018-10-03T03:15:12.294Z,11.10
2018-10-03T03:17:40.733Z,11.20
2018-10-03T03:20:09.241Z,11.20
2018-10-03T03:22:37.684Z,11.10
2018-10-03T03:25:06.262Z,11.20
2018-10-03T03:27:34.701Z,11.20
2018-10-03T03:30:03.181Z,11.20
2018-10-03T03:32:31.629Z,11.20
2018-10-03T03:35:00.077Z,11.20
2018-10-03T03:37:28.509Z,11.10
2018-10-03T03:39:57.067Z,11.20
2018-10-03T03:42:25.561Z,11.10
2018-10-03T03:44:54.039Z,11.10
2018-10-03T03:47:22.491Z,11.00
2018-10-03T03:49:50.977Z,11.00
2018-10-03T03:52:19.409Z,11.10
2018-10-03T03:54:47.854Z,11.10
2018-10-03T03:57:16.321Z,11.10
2018-10-03T03:59:44.780Z,11.00
2018-10-03T04:02:13.232Z,11.00
2018-10-03T04:04:41.682Z,11.00
2018-10-03T04:07:10.145Z,11.00
2018-10-03T04:09:38.602Z,11.00
2018-10-03T04:12:07.133Z,11.10
2018-10-03T04:14:35.569Z,11.00
2018-10-03T04:17:04.045Z,11.00
2018-10-03T04:19:32.488Z,11.00
2018-10-03T04:22:00.951Z,11.00
2018-10-03T04:24:29.406Z,11.00
2018-10-03T04:26:57.869Z,11.00
2018-10-03T04:29:26.325Z,11.00
2018-10-03T04:31:54.801Z,11.00
2018-10-03T04:34:23.256Z,11.00
2018-10-03T04:36:51.769Z,11.00
2018-10-03T04:39:20.218Z,11.00
2018-10-03T04:41:48.714Z,11.00
2018-10-03T04:44:17.153Z,11.10
2018-10-03T04:46:45.622Z,11.00
2018-10-03T04:49:14.081Z,11.00
2018-10-03T04:51:42.565Z,11.00
2018-10-03T04:54:11.001Z,11.00
2018-10-03T04:56:39.481Z,11.00
2018-10-03T04:59:07.934Z,11.00
2018-10-03T05:01:36.488Z,11.00
2018-10-03T05:04:04.985Z,11.00
2018-10-03T05:06:33.475Z,11.00
2018-10-03T05:09:01.926Z,11.00
2018-10-03T05:11:30.440Z,11.00
2018-10-03T05:13:58.881Z,11.00
2018-10-03T05:16:27.338Z,11.00
2018-10-03T05:18:55.806Z,11.00
2018-10-03T05:21:24.256Z,11.00
2018-10-03T05:23:52.700Z,11.10
2018-10-03T05:26:21.139Z,11.10
2018-10-03T05:28:49.607Z,11.10
2018-10-03T05:31:18.046Z,11.10
2018-10-03T05:33:46.564Z,11.20
2018-10-03T05:36:15.021Z,11.20
2018-10-03T05:38:43.485Z,11.20
2018-10-03T05:41:11.953Z,11.30
2018-10-03T05:43:40.430Z,11.20
2018-10-03T05:46:08.914Z,11.20
2018-10-03T05:48:37.397Z,11.20
2018-10-03T05:51:06.016Z,11.20
2018-10-03T05:53:34.694Z,11.30
2018-10-03T05:56:03.157Z,11.30
2018-10-03T05:58:31.623Z,11.30
2018-10-03T06:01:00.074Z,11.30
2018-10-03T06:03:28.902Z,11.30
2018-10-03T06:05:57.337Z,11.40
2018-10-03T06:08:25.798Z,11.40
2018-10-03T06:10:54.270Z,11.30
2018-10-03T06:13:22.806Z,11.30
2018-10-03T06:15:51.312Z,11.40
2018-10-03T06:18:19.808Z,11.30
2018-10-03T06:20:48.278Z,11.30
2018-10-03T06:23:16.746Z,11.40
2018-10-03T06:25:45.209Z,11.40
2018-10-03T06:28:13.716Z,11.40
2018-10-03T06:30:42.174Z,11.40
2018-10-03T06:33:10.660Z,11.40
2018-10-03T06:35:39.124Z,11.50
2018-10-03T06:38:07.607Z,11.50
2018-10-03T06:40:36.046Z,11.50
2018-10-03T06:43:04.530Z,11.50
2018-10-03T06:45:33.058Z,11.50
2018-10-03T06:48:01.524Z,11.40
2018-10-03T06:50:29.985Z,11.40
2018-10-03T06:52:58.457Z,11.40
2018-10-03T06:55:26.916Z,11.40
2018-10-03T06:57:55.345Z,11.30
2018-10-03T07:00:23.826Z,11.30
2018-10-03T07:02:52.253Z,11.20
2018-10-03T07:05:20.722Z,11.10
2018-10-03T07:07:49.160Z,11.10
2018-10-03T07:10:17.626Z,11.10
2018-10-03T07:12:46.132Z,11.10
2018-10-03T07:15:14.625Z,11.00
2018-10-03T07:17:43.078Z,11.00
2018-10-03T07:20:11.567Z,11.00
2018-10-03T07:22:40.023Z,10.90
2018-10-03T07:25:08.510Z,10.90
2018-10-03T07:27:36.969Z,11.00
2018-10-03T07:30:05.765Z,11.00
2018-10-03T07:32:34.276Z,11.00
2018-10-03T07:35:02.734Z,11.00
2018-10-03T07:37:31.204Z,11.00
2018-10-03T07:39:59.732Z,11.00
2018-10-03T07:42:28.233Z,11.00
2018-10-03T07:44:56.737Z,11.00
2018-10-03T07:47:31.301Z,11.00
2018-10-03T07:49:59.906Z,11.00
2018-10-03T07:52:28.414Z,11.00
2018-10-03T07:54:56.922Z,11.00
2018-10-03T07:57:25.477Z,11.10
2018-10-03T07:59:53.936Z,11.00
2018-10-03T08:02:22.382Z,11.10
2018-10-03T08:04:50.893Z,11.10
2018-10-03T08:07:19.356Z,11.10
2018-10-03T08:09:47.871Z,11.20
2018-10-03T08:12:16.356Z,11.20
2018-10-03T08:14:44.839Z,11.30
2018-10-03T08:17:13.358Z,11.30
2018-10-03T08:19:41.844Z,11.30
2018-10-03T08:22:10.425Z,11.30
2018-10-03T08:24:38.996Z,11.40
2018-10-03T08:27:07.529Z,11.40
2018-10-03T08:29:36.041Z,11.50
2018-10-03T08:32:04.510Z,11.50
2018-10-03T08:34:32.971Z,11.60
2018-10-03T08:37:01.551Z,11.70
2018-10-03T08:39:29.998Z,11.80
2018-10-03T08:41:58.522Z,11.90
2018-10-03T08:44:26.967Z,12.10
2018-10-03T08:46:55.436Z,12.20
2018-10-03T08:49:23.881Z,12.30
2018-10-03T08:51:52.354Z,12.40
2018-10-03T08:54:20.803Z,12.60
2018-10-03T08:56:49.286Z,12.70
2018-10-03T08:59:17.730Z,12.80
2018-10-03T09:01:46.214Z,12.90
2018-10-03T09:04:14.682Z,12.90
2018-10-03T09:06:43.182Z,13.00
2018-10-03T09:09:11.630Z,13.10
2018-10-03T09:11:40.130Z,13.20
2018-10-03T09:14:08.722Z,13.20
2018-10-03T09:16:37.250Z,13.30
2018-10-03T09:19:05.698Z,13.30
2018-10-03T09:21:34.192Z,13.50
2018-10-03T09:24:02.677Z,13.60
2018-10-03T09:26:31.167Z,13.70
2018-10-03T09:28:59.665Z,13.70
2018-10-03T09:31:28.182Z,13.80
2018-10-03T09:33:56.692Z,13.80
2018-10-03T09:36:25.189Z,13.80
2018-10-03T09:38:53.982Z,13.70
2018-10-03T09:41:22.476Z,13.80
2018-10-03T09:43:51.025Z,14.00
2018-10-03T09:46:19.471Z,13.90
2018-10-03T09:48:47.937Z,14.00
2018-10-03T09:51:16.418Z,14.10
2018-10-03T09:53:44.906Z,14.40
2018-10-03T09:56:13.354Z,14.50
2018-10-03T09:58:41.821Z,14.50
2018-10-03T10:01:14.145Z,14.30
2018-10-03T10:03:42.613Z,14.40
2018-10-03T10:06:11.085Z,14.60
2018-10-03T10:08:39.589Z,14.40
2018-10-03T10:11:08.126Z,14.50
2018-10-03T10:13:36.553Z,14.70
2018-10-03T10:16:05.048Z,14.40
2018-10-03T10:18:33.537Z,14.40
2018-10-03T10:21:02.006Z,14.60
2018-10-03T10:23:30.497Z,14.70
2018-10-03T10:25:58.949Z,14.70
2018-10-03T10:28:27.441Z,14.80
2018-10-03T10:30:55.977Z,15.00
2018-10-03T10:33:24.467Z,15.20
2018-10-03T10:35:52.997Z,15.30
2018-10-03T10:38:21.575Z,15.40
2018-10-03T10:40:50.092Z,15.50
2018-10-03T10:43:18.673Z,15.30
2018-10-03T10:45:47.538Z,15.20
2018-10-03T10:48:16.033Z,15.00
2018-10-03T10:50:44.532Z,14.90
2018-10-03T10:53:13.050Z,15.00
2018-10-03T10:55:41.540Z,14.90
2018-10-03T10:58:10.022Z,15.20
2018-10-03T11:00:38.488Z,15.60
2018-10-03T11:03:07.030Z,15.80
2018-10-03T11:05:35.506Z,15.90
2018-10-03T11:08:04.098Z,15.80
2018-10-03T11:10:32.560Z,15.70
2018-10-03T11:13:01.084Z,15.50
2018-10-03T11:15:29.579Z,15.50
2018-10-03T11:17:58.136Z,15.40
2018-10-03T11:20:26.621Z,15.30
2018-10-03T11:22:55.158Z,15.40
2018-10-03T11:25:23.637Z,15.50
2018-10-03T11:27:52.160Z,15.50
2018-10-03T11:30:20.679Z,15.40
2018-10-03T11:32:49.181Z,15.50
2018-10-03T11:35:17.654Z,15.40
2018-10-03T11:37:46.170Z,15.40
2018-10-03T11:40:14.650Z,15.50
2018-10-03T11:42:43.157Z,15.70
2018-10-03T11:45:11.672Z,15.60
2018-10-03T11:47:40.148Z,15.60
2018-10-03T11:50:08.705Z,15.50
2018-10-03T11:52:37.169Z,15.60
2018-10-03T11:55:05.683Z,15.60
2018-10-03T11:57:34.138Z,15.70
2018-10-03T12:00:02.626Z,15.80
2018-10-03T12:02:31.141Z,15.70
2018-10-03T12:04:59.637Z,15.70
2018-10-03T12:07:28.094Z,15.40
2018-10-03T12:09:56.568Z,15.40
2018-10-03T12:12:25.007Z,15.40
2018-10-03T12:14:53.455Z,15.40
2018-10-03T12:17:21.884Z,15.30
2018-10-03T12:19:50.341Z,15.20
2018-10-03T12:22:18.783Z,15.30
2018-10-03T12:24:47.245Z,15.20
2018-10-03T12:27:15.708Z,15.20
2018-10-03T12:29:44.187Z,15.20
2018-10-03T12:32:12.709Z,15.30
2018-10-03T12:34:41.272Z,15.30
2018-10-03T12:37:09.747Z,15.40
2018-10-03T12:39:38.208Z,15.40
2018-10-03T12:42:06.667Z,15.20
2018-10-03T12:44:35.105Z,15.20
2018-10-03T12:47:03.603Z,15.10
2018-10-03T12:49:32.101Z,15.10
2018-10-03T12:52:00.527Z,15.10
2018-10-03T12:54:28.983Z,15.10
2018-10-03T12:56:57.522Z,15.20
2018-10-03T12:59:25.995Z,15.20
2018-10-03T13:01:54.487Z,15.30
2018-10-03T13:04:22.908Z,15.30
2018-10-03T13:06:51.358Z,15.30
2018-10-03T13:09:19.792Z,15.30
2018-10-03T13:11:48.276Z,15.30
2018-10-03T13:14:16.748Z,15.30
2018-10-03T13:16:45.227Z,15.30
2018-10-03T13:19:13.712Z,15.40
2018-10-03T13:21:42.183Z,15.50
2018-10-03T13:24:10.643Z,15.40
2018-10-03T13:26:39.084Z,15.40
2018-10-03T13:29:07.536Z,15.40
2018-10-03T13:31:35.976Z,15.30
2018-10-03T13:34:04.412Z,15.30
2018-10-03T13:36:32.843Z,15.30
2018-10-03T13:39:01.287Z,15.30
2018-10-03T13:41:29.786Z,15.40
2018-10-03T13:43:58.504Z,15.50
2018-10-03T13:46:27.013Z,15.50
2018-10-03T13:48:55.480Z,15.50
2018-10-03T13:51:24.005Z,15.60
2018-10-03T13:53:52.516Z,15.50
2018-10-03T13:56:21.007Z,15.70
2018-10-03T13:58:49.465Z,15.80
2018-10-03T14:01:17.955Z,16.00
2018-10-03T14:03:46.448Z,15.80
2018-10-03T14:06:14.916Z,16.00
2018-10-03T14:08:43.368Z,16.00
2018-10-03T14:11:11.983Z,16.10
2018-10-03T14:13:40.411Z,16.00
2018-10-03T14:16:08.944Z,16.00
2018-10-03T14:18:37.531Z,16.10
2018-10-03T14:21:05.984Z,16.00
2018-10-03T14:23:34.454Z,16.10
2018-10-03T14:26:02.920Z,16.10
2018-10-03T14:28:31.364Z,16.00
2018-10-03T14:30:59.858Z,16.00
2018-10-03T14:33:28.302Z,16.10
2018-10-03T14:35:56.771Z,16.00
2018-10-03T14:38:25.284Z,16.10
2018-10-03T14:40:53.752Z,16.00
2018-10-03T14:43:22.172Z,16.10
2018-10-03T14:45:50.664Z,16.20
2018-10-03T14:48:19.084Z,16.20
2018-10-03T14:50:47.512Z,16.20
2018-10-03T14:53:15.923Z,16.10
2018-10-03T14:55:44.368Z,16.10
2018-10-03T14:58:12.820Z,16.10
2018-10-03T15:00:42.109Z,16.20
2018-10-03T15:03:10.539Z,16.20
2018-10-03T15:05:39.036Z,16.20
2018-10-03T15:08:07.476Z,16.30
2018-10-03T15:10:35.952Z,16.40
2018-10-03T15:13:04.404Z,16.30
2018-10-03T15:15:32.860Z,16.30
2018-10-03T15:18:01.300Z,16.40
2018-10-03T15:20:29.789Z,16.20
2018-10-03T15:22:58.240Z,16.10
2018-10-03T15:25:26.744Z,16.00
2018-10-03T15:27:55.188Z,15.90
2018-10-03T15:30:23.600Z,15.80
2018-10-03T15:32:52.044Z,15.80
2018-10-03T15:35:20.481Z,15.70
2018-10-03T15:37:48.958Z,15.80
2018-10-03T15:40:17.376Z,15.70
2018-10-03T15:42:45.871Z,15.60
2018-10-03T15:45:14.332Z,15.60
2018-10-03T15:47:42.840Z,15.60
2018-10-03T15:50:11.307Z,15.50
2018-10-03T15:52:39.787Z,15.50
2018-10-03T15:55:08.324Z,15.50
2018-10-03T15:57:36.810Z,15.40
2018-10-03T16:00:05.603Z,15.40
2018-10-03T16:02:34.163Z,15.40
2018-10-03T16:05:02.608Z,15.40
2018-10-03T16:07:31.124Z,15.30
2018-10-03T16:10:00.285Z,15.30
2018-10-03T16:12:28.985Z,15.30
2018-10-03T16:14:57.475Z,15.20
2018-10-03T16:17:26.023Z,15.10
2018-10-03T16:19:54.472Z,15.10
2018-10-03T16:22:22.956Z,15.20
2018-10-03T16:24:51.403Z,15.10
2018-10-03T16:27:19.906Z,15.00
2018-10-03T16:29:48.363Z,15.00
2018-10-03T16:32:16.851Z,14.90
2018-10-03T16:34:45.312Z,14.90
2018-10-03T16:37:13.772Z,14.80
2018-10-03T16:39:42.233Z,14.70
2018-10-03T16:42:10.723Z,14.60
2018-10-03T16:44:39.203Z,14.60
2018-10-03T16:47:08.323Z,14.50
2018-10-03T16:49:36.781Z,14.50
2018-10-03T16:52:05.289Z,14.50
2018-10-03T16:54:33.741Z,14.40
2018-10-03T16:57:02.282Z,14.30
2018-10-03T16:59:30.739Z,14.20
2018-10-03T17:01:59.217Z,14.20
2018-10-03T17:04:27.691Z,14.20
2018-10-03T17:06:56.208Z,14.10
2018-10-03T17:09:24.649Z,14.10
2018-10-03T17:11:53.115Z,14.10
2018-10-03T17:14:35.140Z,14.00
2018-10-03T17:17:03.621Z,14.00
2018-10-03T17:19:32.073Z,13.90
2018-10-03T17:22:00.915Z,13.80
2018-10-03T17:24:30.571Z,13.80
2018-10-03T17:26:59.268Z,13.70
2018-10-03T17:29:27.711Z,13.60
2018-10-03T17:31:56.253Z,13.60
2018-10-03T17:34:24.687Z,13.50
2018-10-03T17:36:54.111Z,13.50
2018-10-03T17:39:23.467Z,13.50
2018-10-03T17:41:51.910Z,13.40
2018-10-03T17:44:21.003Z,13.40
2018-10-03T17:46:50.515Z,13.30
2018-10-03T17:49:18.976Z,13.30
2018-10-03T17:51:47.431Z,13.30
2018-10-03T17:54:15.874Z,13.30
2018-10-03T17:56:44.336Z,13.20
2018-10-03T17:59:12.936Z,13.20
2018-10-03T18:01:43.289Z,13.10
2018-10-03T18:04:11.719Z,13.10
2018-10-03T18:06:40.135Z,13.10
2018-10-03T18:09:16.871Z,13.10
2018-10-03T18:11:45.237Z,13.10
2018-10-03T18:14:13.679Z,13.00
2018-10-03T18:16:47.515Z,12.90
2018-10-03T18:19:17.053Z,12.90
2018-10-03T18:21:45.587Z,13.00
2018-10-03T18:24:20.751Z,13.00
2018-10-03T18:26:49.190Z,12.90
2018-10-03T18:29:17.615Z,12.90
2018-10-03T18:31:46.124Z,12.90
2018-10-03T18:34:14.592Z,12.80
2018-10-03T18:36:43.001Z,12.80
2018-10-03T18:39:11.757Z,12.80
2018-10-03T18:41:40.557Z,12.80
2018-10-03T18:44:09.099Z,12.80
2018-10-03T18:46:37.625Z,12.80
2018-10-03T18:49:06.250Z,12.80
2018-10-03T18:51:34.975Z,12.70
2018-10-03T18:54:03.427Z,12.60
2018-10-03T18:56:31.867Z,12.60
2018-10-03T18:59:00.319Z,12.60
2018-10-03T19:01:28.795Z,12.50
2018-10-03T19:03:57.230Z,12.40
2018-10-03T19:06:25.687Z,12.40
2018-10-03T19:08:54.132Z,12.30
2018-10-03T19:11:22.588Z,12.30
2018-10-03T19:13:51.041Z,12.30
2018-10-03T19:16:19.544Z,12.20
2018-10-03T19:18:47.951Z,12.10
2018-10-03T19:21:16.393Z,12.10
2018-10-03T19:23:44.815Z,12.00
2018-10-03T19:26:13.312Z,11.90
2018-10-03T19:28:41.688Z,11.90
2018-10-03T19:31:10.119Z,11.80
2018-10-03T19:33:38.527Z,11.80
2018-10-03T19:36:07.000Z,11.80
2018-10-03T19:38:35.415Z,11.70
2018-10-03T19:41:04.089Z,11.70
2018-10-03T19:43:32.549Z,11.60
2018-10-03T19:46:00.960Z,11.60
2018-10-03T19:48:29.523Z,11.60
2018-10-03T19:50:57.962Z,11.50
2018-10-03T19:53:32.167Z,11.50
2018-10-03T19:56:01.331Z,11.50
2018-10-03T19:58:29.800Z,11.50
2018-10-03T20:00:58.256Z,11.50
2018-10-03T20:03:27.013Z,11.50
2018-10-03T20:05:55.663Z,11.30
2018-10-03T20:08:24.670Z,11.20
2018-10-03T20:10:53.085Z,11.20
2018-10-03T20:13:22.024Z,11.30
2018-10-03T20:15:50.693Z,11.20
2018-10-03T20:18:19.160Z,11.10
2018-10-03T20:20:47.766Z,11.00
2018-10-03T20:23:16.173Z,10.90
2018-10-03T20:25:44.601Z,10.90
2018-10-03T20:28:13.005Z,10.90
2018-10-03T20:30:41.396Z,10.90
2018-10-03T20:33:09.823Z,10.80
2018-10-03T20:35:38.276Z,10.70
2018-10-03T20:38:06.778Z,10.70
2018-10-03T20:40:35.192Z,10.70
2018-10-03T20:43:03.624Z,10.70
2018-10-03T20:45:32.032Z,10.70
2018-10-03T20:48:00.496Z,10.70
2018-10-03T20:50:28.977Z,10.80
2018-10-03T20:52:57.355Z,10.80
2018-10-03T20:55:25.756Z,10.80
2018-10-03T20:57:54.147Z,10.70
2018-10-03T21:00:22.649Z,10.70
2018-10-03T21:02:50.961Z,10.70
2018-10-03T21:05:19.388Z,10.70
2018-10-03T21:07:47.778Z,10.80
2018-10-03T21:10:16.213Z,10.80
2018-10-03T21:12:44.601Z,10.80
2018-10-03T21:15:13.015Z,10.90
2018-10-03T21:17:41.405Z,10.80
2018-10-03T21:20:09.817Z,10.80
2018-10-03T21:22:38.205Z,10.80
2018-10-03T21:25:06.686Z,10.80
2018-10-03T21:27:35.041Z,10.80
2018-10-03T21:30:03.482Z,10.80
2018-10-03T21:32:32.007Z,10.80
2018-10-03T21:35:00.383Z,10.80
2018-10-03T21:37:28.764Z,10.90
2018-10-03T21:39:57.309Z,10.60
2018-10-03T21:42:25.758Z,10.50
2018-10-03T21:44:54.216Z,10.50
2018-10-03T21:47:22.665Z,10.50
2018-10-03T21:49:51.207Z,10.50
2018-10-03T21:52:19.573Z,10.50
2018-10-03T21:54:48.029Z,10.50
2018-10-03T21:57:16.460Z,10.40
2018-10-03T21:59:44.897Z,10.30
2018-10-03T22:02:13.328Z,10.20
2018-10-03T22:04:41.787Z,10.20
2018-10-03T22:07:10.208Z,10.10
2018-10-03T22:09:38.662Z,10.10
2018-10-03T22:12:07.098Z,10.00
2018-10-03T22:14:35.627Z,10.00
2018-10-03T22:17:04.125Z,10.00
2018-10-03T22:19:32.570Z,10.00
2018-10-03T22:22:01.017Z,10.00
2018-10-03T22:24:29.468Z,10.00
2018-10-03T22:26:57.888Z,9.90
2018-10-03T22:29:26.343Z,9.90
2018-10-03T22:31:54.772Z,9.80
2018-10-03T22:34:23.221Z,9.80
2018-10-03T22:36:51.637Z,9.70
2018-10-03T22:39:20.088Z,9.70
2018-10-03T22:41:48.529Z,9.70
2018-10-03T22:44:16.960Z,9.70
2018-10-03T22:46:45.380Z,9.60
2018-10-03T22:49:13.833Z,9.60
2018-10-03T22:51:42.469Z,9.60
2018-10-03T22:54:10.924Z,9.50
2018-10-03T22:56:39.348Z,9.40
2018-10-03T22:59:07.798Z,9.40
2018-10-03T23:01:36.237Z,9.40
2018-10-03T23:04:04.704Z,9.40
2018-10-03T23:06:33.160Z,9.30
2018-10-03T23:09:01.569Z,9.40
2018-10-03T23:11:30.104Z,9.30
2018-10-03T23:13:58.554Z,9.30
2018-10-03T23:16:26.992Z,9.30
2018-10-03T23:18:55.408Z,9.30
2018-10-03T23:21:23.852Z,9.30
2018-10-03T23:23:52.345Z,9.30
2018-10-03T23:26:20.784Z,9.20
2018-10-03T23:41:55.626Z,9.30
2018-10-03T23:44:24.013Z,9.20
2018-10-03T23:46:52.406Z,9.20
2018-10-03T23:49:20.804Z,9.20
2018-10-03T23:51:49.202Z,9.20
2018-10-03T23:54:17.632Z,9.20
2018-10-03T23:56:46.041Z,9.10
2018-10-03T23:59:14.415Z,9.10
